Time,TemperatureF,DewpointF,PressureIn,WindDirection,WindDirectionDegrees,WindSpeedMPH,WindSpeedGustMPH,Humidity,HourlyPrecipIn,Conditions,Clouds,dailyrainin,SoftwareType,DateUTC
2017-01-23 00:01:00,29.3,28.0,29.97,North,0,0.0,0.0,95,0.00,,,0.00,meteobridge,2017-01-23 06:01:00,
2017-01-23 00:06:00,29.5,28.2,29.97,NNE,32,5.4,7.0,95,0.00,,,0.00,meteobridge,2017-01-23 06:06:00,
2017-01-23 00:11:00,29.7,28.4,29.97,NNW,336,0.0,0.0,95,0.00,,,0.00,meteobridge,2017-01-23 06:11:00,
2017-01-23 00:12:00,29.7,28.2,29.97,North,0,0.0,1.0,94,0.00,,,0.00,meteobridge,2017-01-23 06:12:00,
2017-01-23 00:17:00,29.7,28.2,29.97,NE,39,0.0,0.0,94,0.00,,,0.00,meteobridge,2017-01-23 06:17:00,
2017-01-23 00:22:00,29.8,28.4,29.98,NE,37,0.0,1.0,94,0.00,,,0.00,meteobridge,2017-01-23 06:22:00,
2017-01-23 00:27:00,29.8,28.4,29.98,North,0,4.3,6.0,94,0.00,,,0.00,meteobridge,2017-01-23 06:27:00,
2017-01-23 00:32:00,29.8,28.4,29.98,North,0,4.3,15.0,94,0.00,,,0.00,meteobridge,2017-01-23 06:32:00,
2017-01-23 00:37:00,30.0,28.2,29.98,North,0,0.0,9.0,93,0.00,,,0.00,meteobridge,2017-01-23 06:37:00,
2017-01-23 00:42:00,30.0,28.2,29.98,NNE,16,11.6,12.0,93,0.00,,,0.00,meteobridge,2017-01-23 06:42:00,
2017-01-23 00:47:00,30.0,28.0,29.99,NNE,17,3.1,11.0,92,0.00,,,0.00,meteobridge,2017-01-23 06:47:00,
2017-01-23 00:52:00,30.0,28.0,29.99,North,11,0.0,9.0,92,0.00,,,0.00,meteobridge,2017-01-23 06:52:00,
2017-01-23 00:57:00,30.2,28.2,29.98,North,3,7.4,13.0,92,0.00,,,0.00,meteobridge,2017-01-23 06:57:00,
2017-01-23 01:02:00,30.4,28.4,29.98,North,1,8.5,12.0,92,0.00,,,0.00,meteobridge,2017-01-23 07:02:00,
2017-01-23 01:07:00,30.4,28.4,29.98,North,0,8.5,10.0,92,0.00,,,0.00,meteobridge,2017-01-23 07:07:00,
2017-01-23 01:12:00,30.6,28.6,29.98,North,358,0.0,0.0,92,0.00,,,0.00,meteobridge,2017-01-23 07:12:00,
2017-01-23 01:17:00,30.6,28.6,29.99,North,0,0.0,10.0,92,0.00,,,0.00,meteobridge,2017-01-23 07:17:00,
2017-01-23 01:22:00,30.6,28.6,29.98,North,0,0.0,0.0,92,0.00,,,0.00,meteobridge,2017-01-23 07:22:00,
2017-01-23 01:27:00,30.6,28.6,29.97,North,0,0.0,0.0,92,0.00,,,0.00,meteobridge,2017-01-23 07:27:00,
2017-01-23 01:32:00,30.6,28.6,29.97,NNE,14,0.0,1.0,92,0.00,,,0.00,meteobridge,2017-01-23 07:32:00,
2017-01-23 01:37:00,30.7,28.4,29.97,North,358,0.0,0.0,91,0.00,,,0.00,meteobridge,2017-01-23 07:37:00,
2017-01-23 01:42:00,30.7,28.4,29.98,NNE,18,0.0,0.0,91,0.00,,,0.00,meteobridge,2017-01-23 07:42:00,
2017-01-23 01:47:00,30.7,28.8,29.98,NNE,20,0.0,10.0,92,0.00,,,0.00,meteobridge,2017-01-23 07:47:00,
2017-01-23 01:52:00,30.7,28.4,29.98,North,0,0.0,0.0,91,0.00,,,0.00,meteobridge,2017-01-23 07:52:00,
2017-01-23 01:57:00,30.9,28.6,29.98,ENE,62,0.0,0.0,91,0.00,,,0.00,meteobridge,2017-01-23 07:57:00,
2017-01-23 02:02:00,30.9,28.6,29.97,NNE,32,0.0,0.0,91,0.00,,,0.00,meteobridge,2017-01-23 08:02:00,
2017-01-23 02:07:00,30.9,28.6,29.97,NNE,27,0.0,10.0,91,0.00,,,0.00,meteobridge,2017-01-23 08:07:00,
2017-01-23 02:12:00,30.9,28.9,29.97,NE,45,0.0,7.0,92,0.00,,,0.00,meteobridge,2017-01-23 08:12:00,
2017-01-23 02:17:00,30.9,28.9,29.97,NNE,20,0.0,1.0,92,0.00,,,0.00,meteobridge,2017-01-23 08:17:00,
2017-01-23 02:22:00,30.9,28.6,29.97,ENE,62,0.0,6.0,91,0.00,,,0.00,meteobridge,2017-01-23 08:22:00,
2017-01-23 02:27:00,30.9,28.6,29.97,East,86,0.0,0.0,91,0.00,,,0.00,meteobridge,2017-01-23 08:27:00,
2017-01-23 02:32:00,30.9,28.6,29.97,NNE,16,7.4,7.4,91,0.00,,,0.00,meteobridge,2017-01-23 08:32:00,
2017-01-23 02:37:00,30.9,28.4,29.98,NNE,16,0.0,1.0,90,0.00,,,0.00,meteobridge,2017-01-23 08:37:00,
2017-01-23 02:42:00,30.9,28.4,29.99,North,0,0.0,0.0,90,0.00,,,0.00,meteobridge,2017-01-23 08:42:00,
2017-01-23 02:47:00,31.1,28.6,30.00,North,0,0.0,0.0,90,0.00,,,0.00,meteobridge,2017-01-23 08:47:00,
2017-01-23 02:52:00,30.9,28.4,30.01,NE,42,0.0,0.0,90,0.00,,,0.00,meteobridge,2017-01-23 08:52:00,
2017-01-23 02:57:00,30.9,28.4,30.00,North,0,0.0,0.0,90,0.00,,,0.00,meteobridge,2017-01-23 08:57:00,
2017-01-23 03:02:00,31.1,29.0,29.91,NNE,24,0.0,1.0,90,0.00,,,0.00,weatherlink.com 1.10,2017-01-23 09:02:00,
2017-01-23 03:08:00,31.1,28.6,30.00,NNE,18,0.0,0.0,90,0.00,,,0.00,meteobridge,2017-01-23 09:08:00,
2017-01-23 03:13:00,31.1,28.6,30.00,North,0,0.0,0.0,90,0.00,,,0.00,meteobridge,2017-01-23 09:13:00,
2017-01-23 03:18:00,31.1,28.6,29.99,North,351,0.0,0.0,90,0.00,,,0.00,meteobridge,2017-01-23 09:18:00,
2017-01-23 03:23:00,31.1,28.6,29.99,NNE,16,0.0,1.0,90,0.00,,,0.00,meteobridge,2017-01-23 09:23:00,
2017-01-23 03:28:00,31.1,28.6,29.99,NE,34,0.0,0.0,90,0.00,,,0.00,meteobridge,2017-01-23 09:28:00,
2017-01-23 03:33:00,31.1,28.6,29.99,NE,41,0.0,0.0,90,0.00,,,0.00,meteobridge,2017-01-23 09:33:00,
2017-01-23 03:38:00,31.1,28.6,29.99,North,0,0.0,0.0,90,0.00,,,0.00,meteobridge,2017-01-23 09:38:00,
2017-01-23 03:43:00,31.3,28.8,29.99,NNE,16,0.0,0.0,90,0.00,,,0.00,meteobridge,2017-01-23 09:43:00,
2017-01-23 03:48:00,31.3,28.8,29.99,NNE,32,0.0,0.0,90,0.00,,,0.00,meteobridge,2017-01-23 09:48:00,
2017-01-23 03:53:00,31.3,28.8,29.99,North,0,0.0,0.0,90,0.00,,,0.00,meteobridge,2017-01-23 09:53:00,
2017-01-23 03:58:00,31.3,28.8,29.99,NE,35,0.0,0.0,90,0.00,,,0.00,meteobridge,2017-01-23 09:58:00,
2017-01-23 04:03:00,31.3,28.8,29.98,ENE,65,0.0,0.0,90,0.00,,,0.00,meteobridge,2017-01-23 10:03:00,
2017-01-23 04:08:00,31.3,28.8,29.97,ENE,63,0.0,0.0,90,0.00,,,0.00,meteobridge,2017-01-23 10:08:00,
2017-01-23 04:13:00,31.1,28.6,29.97,ENE,63,0.0,1.0,90,0.00,,,0.00,meteobridge,2017-01-23 10:13:00,
2017-01-23 04:18:00,31.1,28.2,29.96,East,82,1.1,1.1,89,0.00,,,0.00,meteobridge,2017-01-23 10:18:00,
2017-01-23 04:23:00,31.3,28.8,29.96,ENE,66,0.0,0.0,90,0.00,,,0.00,meteobridge,2017-01-23 10:23:00,
2017-01-23 04:28:00,31.1,28.2,29.97,NE,48,0.0,9.0,89,0.00,,,0.00,meteobridge,2017-01-23 10:28:00,
2017-01-23 04:33:00,31.1,28.2,29.97,NE,54,0.0,0.0,89,0.00,,,0.00,meteobridge,2017-01-23 10:33:00,
2017-01-23 04:38:00,31.1,28.2,29.97,ENE,61,0.0,0.0,89,0.00,,,0.00,meteobridge,2017-01-23 10:38:00,
2017-01-23 04:43:00,31.1,28.2,29.97,North,0,0.0,3.0,89,0.00,,,0.00,meteobridge,2017-01-23 10:43:00,
2017-01-23 04:48:00,31.3,28.4,29.98,NE,35,0.0,0.0,89,0.00,,,0.00,meteobridge,2017-01-23 10:48:00,
2017-01-23 04:53:00,31.3,28.4,29.98,NNE,21,0.0,0.0,89,0.00,,,0.00,meteobridge,2017-01-23 10:53:00,
2017-01-23 04:58:00,31.3,28.4,29.97,North,0,0.0,0.0,89,0.00,,,0.00,meteobridge,2017-01-23 10:58:00,
2017-01-23 05:03:00,31.3,28.4,29.97,North,6,0.0,0.0,89,0.00,,,0.00,meteobridge,2017-01-23 11:03:00,
2017-01-23 05:08:00,31.3,28.4,29.97,NNE,24,0.0,0.0,89,0.00,,,0.00,meteobridge,2017-01-23 11:08:00,
2017-01-23 05:13:00,31.1,28.2,29.97,NE,55,0.0,0.0,89,0.00,,,0.00,meteobridge,2017-01-23 11:13:00,
2017-01-23 05:18:00,31.1,28.2,29.97,NE,52,0.0,0.0,89,0.00,,,0.00,meteobridge,2017-01-23 11:18:00,
2017-01-23 05:23:00,31.1,28.2,29.97,NE,51,0.0,0.0,89,0.00,,,0.00,meteobridge,2017-01-23 11:23:00,
2017-01-23 05:28:00,30.9,28.0,29.96,NE,54,0.0,0.0,89,0.00,,,0.00,meteobridge,2017-01-23 11:28:00,
2017-01-23 05:33:00,31.1,28.2,29.97,NNE,23,0.0,0.0,89,0.00,,,0.00,meteobridge,2017-01-23 11:33:00,
2017-01-23 05:38:00,31.1,28.0,29.97,NNE,28,0.0,0.0,88,0.00,,,0.00,meteobridge,2017-01-23 11:38:00,